Time;durP1;ratioP1;P1;durP2;ratioP2;P2;SDS_P1;SDS_P2;PMS_P1;PMS_P2;Temp;Humidity;BMP_temperature;BMP_pressure;BME280_temperature;BME280_humidity;BME280_pressure;Samples;Min_cycle;Max_cycle;Signal;HPM_P1;HPM_P2
2022/04/17 00:00:11;;;;;;;30.20;21.60;;;;;;;2.82;54.61;101940.77;110113;1261;23778;-83
2022/04/17 00:03:01;;;;;;;34.40;22.70;;;;;;;2.76;54.68;101936.87;109980;1261;22027;-82
2022/04/17 00:05:31;;;;;;;34.80;22.80;;;;;;;2.71;54.85;101932.61;110411;1256;23672;-83
2022/04/17 00:08:07;;;;;;;35.30;23.40;;;;;;;2.68;55.11;101933.14;110751;1257;24358;-83
2022/04/17 00:10:48;;;;;;;35.90;22.90;;;;;;;2.65;55.13;101929.09;110512;1256;23673;-82
2022/04/17 00:13:25;;;;;;;36.10;23.60;;;;;;;2.62;55.28;101923.52;110791;1256;21968;-84
2022/04/17 00:16:11;;;;;;;35.60;25.20;;;;;;;2.58;55.32;101922.87;110941;1256;22383;-85
2022/04/17 00:18:47;;;;;;;36.60;24.30;;;;;;;2.54;55.44;101923.40;111018;1251;21912;-83
2022/04/17 00:21:38;;;;;;;37.30;24.60;;;;;;;2.51;55.63;101921.98;110597;1257;21971;-83
2022/04/17 00:24:12;;;;;;;36.40;24.80;;;;;;;2.47;55.58;101918.73;110849;1258;21952;-85
2022/04/17 00:26:46;;;;;;;35.50;23.90;;;;;;;2.46;55.69;101916.33;110276;1260;22020;-84
2022/04/17 00:29:28;;;;;;;33.50;22.20;;;;;;;2.49;55.89;101915.33;110302;1260;23632;-86
2022/04/17 00:32:05;;;;;;;34.10;23.00;;;;;;;2.52;56.02;101917.57;110728;1259;21969;-85
2022/04/17 00:34:46;;;;;;;;;;;;;;;;;;;;;
2022/04/17 00:37:43;;;;;;;31.90;22.60;;;;;;;2.55;56.19;101916.56;110902;1261;21987;-85
2022/04/17 00:41:09;;;;;;;26.60;18.80;;;;;;;2.51;56.22;101920.06;111856;1254;21976;-86
2022/04/17 00:44:32;;;;;;;29.00;19.70;;;;;;;2.47;56.26;101923.57;111481;1260;23041;-85
2022/04/17 00:47:08;;;;;;;28.20;18.60;;;;;;;2.44;56.33;101926.50;110558;1261;21971;-83
2022/04/17 00:49:49;;;;;;;24.50;17.30;;;;;;;2.44;56.37;101929.48;109522;1264;22007;-83
2022/04/17 00:52:22;;;;;;;27.00;17.80;;;;;;;2.43;56.41;101928.86;109654;1264;22036;-82
2022/04/17 00:54:55;;;;;;;37.10;19.60;;;;;;;2.41;56.48;101931.69;109316;1272;23613;-82
2022/04/17 00:57:54;;;;;;;32.80;17.70;;;;;;;2.38;56.47;101930.32;108941;1274;22733;-83
2022/04/17 01:00:27;;;;;;;27.00;16.70;;;;;;;2.32;56.48;101930.21;108804;1276;21977;-82
2022/04/17 01:03:17;;;;;;;;;;;;;;;;;;;;;
2022/04/17 01:06:01;;;;;;;24.50;16.10;;;;;;;2.21;56.58;101926.41;108936;1275;22003;-83
2022/04/17 01:08:34;;;;;;;28.90;16.50;;;;;;;2.20;56.76;101926.84;109026;1270;21988;-83
2022/04/17 01:11:14;;;;;;;24.10;14.50;;;;;;;2.23;56.96;101927.75;108716;1275;22008;-83
2022/04/17 01:13:47;;;;;;;24.80;15.90;;;;;;;2.26;57.14;101928.83;108880;1270;23645;-83
2022/04/17 01:16:24;;;;;;;;;;;;;;;2.26;57.16;101923.09;109112;1270;21953;-80
2022/04/17 01:19:35;;;;;;;;;;;;;;;;;;;;;
2022/04/17 01:22:31;;;;;;;;;;;;;;;;;;;;;
2022/04/17 01:28:17;;;;;;;36.00;21.20;;;;;;;2.01;57.55;101915.25;109739;1265;21982;-83
2022/04/17 01:31:12;;;;;;;35.60;21.60;;;;;;;1.96;57.64;101910.83;109574;1266;22235;-83
2022/04/17 01:34:09;;;;;;;34.00;21.30;;;;;;;1.90;57.76;101908.82;109790;1266;22436;-86
2022/04/17 01:36:39;;;;;;;38.20;22.20;;;;;;;1.86;57.83;101912.14;109770;1267;21982;-84
2022/04/17 01:39:12;;;;;;;31.60;20.40;;;;;;;1.82;57.87;101908.98;109524;1267;22915;-84
2022/04/17 01:41:41;;;;;;;;;;;;;;;1.82;58.03;101907.31;109732;1267;22289;-83
2022/04/17 01:44:21;;;;;;;32.50;19.40;;;;;;;1.78;58.21;101905.40;109668;1267;22016;-84
2022/04/17 01:46:55;;;;;;;38.10;20.30;;;;;;;1.82;58.41;101905.38;109402;1267;22017;-83
2022/04/17 01:49:29;;;;;;;35.90;21.40;;;;;;;1.84;58.53;101904.21;109830;1260;22236;-84
2022/04/17 01:52:13;;;;;;;34.10;21.40;;;;;;;1.86;58.60;101903.29;109583;1267;22053;-84
2022/04/17 01:54:54;;;;;;;35.40;21.40;;;;;;;1.85;58.61;101902.45;109675;1265;23708;-84
2022/04/17 01:57:45;;;;;;;38.20;21.50;;;;;;;1.84;58.79;101904.75;109509;1266;23791;-85
2022/04/17 02:00:30;;;;;;;;;;;;;;;;;;;;;
2022/04/17 02:03:02;;;;;;;31.30;19.50;;;;;;;1.74;58.84;101902.45;109250;1270;22774;-82
2022/04/17 02:05:32;;;;;;;34.00;20.30;;;;;;;1.70;58.86;101903.01;109023;1270;23612;-82
2022/04/17 02:08:13;;;;;;;33.30;20.30;;;;;;;1.67;59.01;101902.46;108780;1273;22003;-83
2022/04/17 02:10:51;;;;;;;31.20;21.70;;;;;;;1.62;58.94;101903.35;108787;1276;22487;-82
2022/04/17 02:13:23;;;;;;;30.40;19.30;;;;;;;1.56;59.00;101900.17;108745;1273;23092;-81
2022/04/17 02:16:05;;;;;;;28.90;18.60;;;;;;;1.51;59.06;101900.93;108885;1268;22480;-80
2022/04/17 02:18:48;;;;;;;33.30;20.20;;;;;;;1.50;59.28;101899.08;108739;1273;21996;-80
2022/04/17 02:21:22;;;;;;;31.70;19.80;;;;;;;1.53;59.41;101900.33;108649;1271;21996;-79
2022/04/17 02:23:53;;;;;;;33.80;21.30;;;;;;;1.57;59.46;101903.80;108932;1273;23068;-80
2022/04/17 02:26:26;;;;;;;31.70;21.10;;;;;;;1.58;59.66;101905.98;109151;1267;23046;-80
2022/04/17 02:28:58;;;;;;;32.20;20.80;;;;;;;1.59;59.65;101905.79;109256;1267;23578;-81
2022/04/17 02:31:30;;;;;;;31.10;20.80;;;;;;;1.57;59.76;101907.26;109256;1267;22014;-81
2022/04/17 02:34:00;;;;;;;30.40;20.60;;;;;;;1.55;59.85;101908.02;109296;1266;21976;-82
2022/04/17 02:36:30;;;;;;;28.60;18.50;;;;;;;1.53;59.82;101902.94;109512;1259;22716;-81
2022/04/17 02:38:59;;;;;;;27.30;18.30;;;;;;;1.51;59.89;101900.07;109233;1267;21982;-81
2022/04/17 02:41:29;;;;;;;28.10;17.50;;;;;;;1.48;59.92;101895.52;109274;1267;23613;-80
2022/04/17 02:43:59;;;;;;;26.90;16.20;;;;;;;1.45;60.04;101893.23;108961;1265;21988;-80
2022/04/17 02:49:21;;;;;;;27.20;15.80;;;;;;;1.45;60.17;101893.41;109587;1264;22178;-81
2022/04/17 02:51:57;;;;;;;21.60;14.80;;;;;;;1.47;60.30;101891.58;109567;1267;21945;-82
2022/04/17 02:54:28;;;;;;;23.30;15.50;;;;;;;1.48;60.35;101890.67;109489;1264;22254;-80
2022/04/17 02:57:07;;;;;;;20.20;15.00;;;;;;;1.48;60.35;101890.31;109209;1264;23043;-81
2022/04/17 02:59:39;;;;;;;28.80;16.40;;;;;;;1.48;60.37;101891.38;109000;1270;23658;-82
2022/04/17 03:08:28;;;;;;;;;;;;;;;;;;;;;
2022/04/17 03:11:40;;;;;;;32.90;20.00;;;;;;;1.33;60.62;101883.71;111305;1260;21950;-86
2022/04/17 03:14:33;;;;;;;33.00;21.70;;;;;;;1.30;60.58;101888.19;109542;1267;23037;-85
2022/04/17 03:17:04;;;;;;;34.80;18.40;;;;;;;1.32;60.68;101891.93;109583;1266;21997;-85
2022/04/17 03:19:59;;;;;;;33.40;18.10;;;;;;;1.36;60.72;101893.12;109600;1267;22061;-86
2022/04/17 03:22:34;;;;;;;25.90;17.30;;;;;;;1.40;60.74;101897.27;109341;1266;23607;-84
2022/04/17 03:25:06;;;;;;;27.00;15.80;;;;;;;1.41;60.74;101902.08;109378;1267;21978;-85
2022/04/17 03:27:45;;;;;;;33.70;19.60;;;;;;;1.43;60.92;101904.11;109545;1267;22001;-85
2022/04/17 03:30:18;;;;;;;38.30;19.40;;;;;;;1.44;60.91;101900.92;109537;1267;21951;-85
2022/04/17 03:32:56;;;;;;;28.70;18.90;;;;;;;1.42;60.92;101897.70;109829;1261;22022;-85
2022/04/17 03:39:51;;;;;;;;;;;;;;;;;;;;;
2022/04/17 03:43:08;;;;;;;;;;;;;;;;;;;;;
2022/04/17 03:56:50;;;;;;;25.50;17.90;;;;;;;1.35;61.10;101891.44;111404;1257;21982;-84
2022/04/17 03:59:27;;;;;;;26.80;16.80;;;;;;;1.35;61.16;101891.09;110588;1259;23794;-85
2022/04/17 04:02:05;;;;;;;25.20;17.90;;;;;;;1.35;61.12;101889.17;110277;1257;21991;-84
2022/04/17 04:04:35;;;;;;;24.90;16.80;;;;;;;1.33;61.16;101888.40;109550;1264;22306;-82
2022/04/17 04:07:07;;;;;;;;;;;;;;;1.30;61.19;101890.79;109497;1265;22725;-82
2022/04/17 04:09:47;;;;;;;28.40;16.40;;;;;;;1.22;61.46;101890.32;109686;1264;21976;-85
2022/04/17 04:12:37;;;;;;;26.60;17.80;;;;;;;1.16;61.50;101893.00;109757;1266;22937;-84
2022/04/17 04:15:38;;;;;;;25.10;15.80;;;;;;;1.15;61.52;101891.45;109713;1264;22039;-84
2022/04/17 04:18:20;;;;;;;;;;;;;;;;;;;;;
2022/04/17 04:20:52;;;;;;;26.10;16.40;;;;;;;1.28;61.82;101892.80;109618;1264;21979;-83
2022/04/17 04:23:22;;;;;;;24.10;15.50;;;;;;;1.42;62.21;101891.31;110114;1259;22089;-84
2022/04/17 04:26:15;;;;;;;24.70;16.10;;;;;;;1.60;62.67;101893.04;109882;1261;21988;-85
2022/04/17 04:28:46;;;;;;;25.90;15.60;;;;;;;1.79;62.95;101898.57;109193;1267;22908;-84
2022/04/17 04:31:15;;;;;;;26.20;16.50;;;;;;;1.99;63.19;101901.44;109188;1267;22585;-83
2022/04/17 04:33:51;;;;;;;28.10;15.40;;;;;;;2.20;63.12;101898.16;109152;1267;21948;-83
2022/04/17 04:36:29;;;;;;;23.80;16.40;;;;;;;2.40;62.92;101890.70;109340;1270;23750;-83
2022/04/17 04:39:10;;;;;;;26.10;16.00;;;;;;;2.58;62.44;101889.47;109372;1270;23622;-84
2022/04/17 04:41:51;;;;;;;27.00;19.10;;;;;;;2.73;62.18;101891.48;109322;1267;21990;-84
2022/04/17 04:44:23;;;;;;;28.80;17.50;;;;;;;2.91;61.89;101893.65;109447;1267;21987;-84
2022/04/17 04:50:33;;;;;;;25.90;18.20;;;;;;;3.37;61.41;101896.42;110686;1258;23104;-85
2022/04/17 04:53:12;;;;;;;23.90;16.20;;;;;;;3.61;61.19;101897.73;110446;1261;22053;-82
2022/04/17 04:55:48;;;;;;;21.80;16.10;;;;;;;3.86;61.05;101897.88;110031;1261;21983;-83
2022/04/17 04:58:18;;;;;;;23.90;15.00;;;;;;;4.13;60.72;101897.90;110224;1261;21968;-82
2022/04/17 05:00:52;;;;;;;21.00;14.60;;;;;;;4.44;60.59;101892.09;110833;1260;21976;-84
2022/04/17 05:03:24;;;;;;;21.40;14.20;;;;;;;4.72;59.82;101891.32;110458;1263;21974;-83
2022/04/17 05:05:56;;;;;;;20.80;14.60;;;;;;;4.99;59.34;101891.75;109494;1267;22039;-84
2022/04/17 05:08:27;;;;;;;22.70;14.60;;;;;;;5.30;58.94;101890.04;109110;1270;22134;-79
2022/04/17 05:11:05;;;;;;;22.00;15.00;;;;;;;5.56;58.11;101889.96;108895;1273;23043;-81
2022/04/17 05:13:34;;;;;;;19.20;13.70;;;;;;;5.81;57.39;101889.77;108921;1273;22045;-80
2022/04/17 05:16:04;;;;;;;16.30;13.40;;;;;;;6.11;57.55;101887.80;108948;1273;21998;-79
2022/04/17 05:18:37;;;;;;;16.70;11.90;;;;;;;6.45;57.00;101885.00;108487;1273;23061;-81
2022/04/17 05:21:12;;;;;;;17.20;12.10;;;;;;;6.74;56.31;101885.67;108913;1273;23857;-81
2022/04/17 05:23:47;;;;;;;17.70;12.20;;;;;;;7.04;55.27;101884.34;108833;1273;22014;-81
2022/04/17 05:26:19;;;;;;;16.00;11.80;;;;;;;7.28;54.87;101890.33;109075;1270;23634;-81
2022/04/17 05:28:51;;;;;;;11.30;10.10;;;;;;;7.51;54.02;101892.52;108818;1270;21987;-82
2022/04/17 05:31:43;;;;;;;15.10;10.30;;;;;;;7.60;52.56;101891.89;109561;1267;22264;-83
2022/04/17 05:34:20;;;;;;;13.80;10.70;;;;;;;7.74;52.70;101895.75;109005;1271;23698;-82
2022/04/17 05:37:01;;;;;;;11.90;10.10;;;;;;;7.91;52.23;101894.68;108623;1276;24214;-82
2022/04/17 05:40:04;;;;;;;14.50;10.90;;;;;;;8.09;51.96;101895.31;108856;1276;22751;-82
2022/04/17 05:42:48;;;;;;;11.80;10.20;;;;;;;8.27;51.35;101893.13;108836;1276;22000;-82
2022/04/17 05:45:26;;;;;;;13.50;10.40;;;;;;;8.49;51.24;101895.73;108883;1276;21987;-81
2022/04/17 05:48:10;;;;;;;13.00;8.80;;;;;;;8.76;51.10;101898.16;108731;1273;23714;-80
2022/04/17 05:50:59;;;;;;;11.50;9.60;;;;;;;9.07;50.64;101895.04;108612;1281;22522;-80
2022/04/17 05:53:44;;;;;;;13.00;9.80;;;;;;;9.42;50.28;101892.50;108848;1273;23084;-81
2022/04/17 05:56:41;;;;;;;16.50;12.50;;;;;;;9.76;49.48;101895.73;109562;1267;21987;-79
2022/04/17 05:59:18;;;;;;;11.20;9.00;;;;;;;10.04;48.88;101894.67;109397;1267;22282;-79
2022/04/17 06:03:01;;;;;;;;;;;;;;;;;;;;;
2022/04/17 06:07:00;;;;;;;;;;;;;;;;;;;;;
2022/04/17 06:10:20;;;;;;;7.60;6.50;;;;;;;10.84;46.41;101892.36;109096;1270;22517;-81
2022/04/17 06:12:57;;;;;;;12.60;9.50;;;;;;;11.12;46.10;101888.52;108871;1273;23090;-80
2022/04/17 06:15:30;;;;;;;11.70;8.40;;;;;;;11.34;45.21;101886.61;109090;1273;22002;-81
2022/04/17 06:18:07;;;;;;;12.80;8.20;;;;;;;11.50;45.01;101886.02;108996;1273;22775;-80
2022/04/17 06:20:43;;;;;;;16.90;12.70;;;;;;;11.79;44.93;101882.77;108933;1270;21999;-80
2022/04/17 06:23:18;;;;;;;;;;;;;;;12.09;44.01;101886.27;108828;1271;23101;-80
2022/04/17 06:26:11;;;;;;;11.40;8.10;;;;;;;12.27;43.31;101888.88;109194;1273;23695;-80
2022/04/17 06:28:43;;;;;;;9.60;7.10;;;;;;;12.41;42.41;101880.69;109005;1270;22018;-82
2022/04/17 06:31:19;;;;;;;9.50;7.90;;;;;;;12.42;41.61;101880.70;108908;1273;22324;-81
2022/04/17 06:33:49;;;;;;;9.40;7.50;;;;;;;12.37;40.99;101880.69;108976;1270;22061;-80
2022/04/17 06:36:20;;;;;;;10.60;7.00;;;;;;;12.38;41.16;101878.28;108907;1273;22856;-80
2022/04/17 06:38:50;;;;;;;9.20;7.60;;;;;;;12.47;40.99;101875.31;108995;1273;21992;-80
2022/04/17 06:41:23;;;;;;;10.20;7.20;;;;;;;12.57;40.78;101877.38;109006;1271;22001;-81
2022/04/17 06:43:56;;;;;;;9.60;6.80;;;;;;;12.81;41.02;101878.35;108857;1270;23144;-81
2022/04/17 06:46:28;;;;;;;8.10;6.70;;;;;;;13.05;40.43;101881.18;109435;1262;22078;-80
2022/04/17 06:49:04;;;;;;;7.20;5.40;;;;;;;13.42;40.56;101876.42;109692;1260;22018;-80
2022/04/17 06:51:35;;;;;;;7.80;5.50;;;;;;;13.77;39.37;101869.96;110069;1262;21977;-80
2022/04/17 06:54:24;;;;;;;9.40;8.00;;;;;;;14.02;38.36;101871.52;109930;1260;21939;-82
2022/04/17 06:57:21;;;;;;;;;;;;;;;;;;;;;
2022/04/17 06:59:54;;;;;;;6.20;4.50;;;;;;;14.37;37.06;101864.99;109403;1267;23105;-80
2022/04/17 07:02:26;;;;;;;7.80;4.80;;;;;;;14.55;36.13;101865.48;109477;1266;22095;-80
2022/04/17 07:05:12;;;;;;;10.60;7.80;;;;;;;14.68;35.32;101863.69;109301;1270;23613;-82
2022/04/17 07:07:58;;;;;;;4.90;3.40;;;;;;;14.73;34.83;101858.01;109073;1276;22363;-80
2022/04/17 07:10:36;;;;;;;6.20;5.10;;;;;;;14.83;34.47;101857.33;108887;1276;22101;-80
2022/04/17 07:13:21;;;;;;;5.70;4.00;;;;;;;15.04;34.23;101856.00;108941;1276;22046;-82
2022/04/17 07:15:52;;;;;;;4.30;3.50;;;;;;;15.28;33.96;101858.84;108684;1276;21988;-81
2022/04/17 07:18:31;;;;;;;5.90;4.50;;;;;;;15.41;33.26;101858.10;108710;1279;23061;-80
2022/04/17 07:21:01;;;;;;;4.00;2.90;;;;;;;15.61;33.09;101858.16;108845;1279;23827;-81
2022/04/17 07:23:36;;;;;;;3.80;2.50;;;;;;;15.80;32.17;101860.41;108741;1279;22037;-80
2022/04/17 07:26:11;;;;;;;4.30;3.00;;;;;;;15.82;31.29;101859.86;108453;1276;21944;-79
2022/04/17 07:28:41;;;;;;;5.30;3.90;;;;;;;15.91;31.19;101860.31;108972;1276;22184;-82
2022/04/17 07:31:27;;;;;;;;;;;;;;;;;;;;;
2022/04/17 07:34:02;;;;;;;3.90;2.70;;;;;;;16.31;30.72;101860.77;108822;1279;23071;-81
2022/04/17 07:36:36;;;;;;;4.30;2.90;;;;;;;16.50;30.43;101856.83;109027;1271;22616;-80
2022/04/17 07:39:16;;;;;;;5.80;2.40;;;;;;;16.80;30.23;101856.38;109302;1273;22011;-81
2022/04/17 07:42:20;;;;;;;4.00;2.70;;;;;;;17.04;29.31;101854.33;109005;1273;22139;-81
2022/04/17 07:44:55;;;;;;;6.00;2.90;;;;;;;17.15;28.77;101850.22;108850;1274;22007;-81
2022/04/17 07:47:26;;;;;;;4.80;3.10;;;;;;;17.18;28.05;101851.52;108789;1273;24353;-80
2022/04/17 07:49:59;;;;;;;7.90;3.10;;;;;;;17.02;27.53;101850.12;108934;1273;22456;-80
2022/04/17 07:52:37;;;;;;;5.80;3.50;;;;;;;16.84;27.47;101843.41;109289;1270;22114;-82
2022/04/17 07:55:14;;;;;;;5.30;3.40;;;;;;;16.53;27.29;101840.55;109406;1267;21945;-81
2022/04/17 08:00:47;;;;;;;4.10;2.60;;;;;;;16.31;28.36;101834.73;109798;1261;21979;-79
2022/04/17 08:06:01;;;;;;;6.10;3.80;;;;;;;16.28;28.15;101822.30;109826;1260;22891;-83
2022/04/17 08:08:37;;;;;;;4.50;3.00;;;;;;;16.31;28.44;101823.20;110207;1263;21998;-82
2022/04/17 08:11:12;;;;;;;3.70;2.50;;;;;;;16.42;28.03;101826.23;110103;1263;22031;-81
2022/04/17 08:13:55;;;;;;;3.60;2.10;;;;;;;16.54;27.63;101822.03;109485;1267;22430;-81
2022/04/17 08:16:36;;;;;;;4.30;2.60;;;;;;;16.71;27.02;101821.42;109309;1270;21976;-82
2022/04/17 08:19:11;;;;;;;3.80;2.40;;;;;;;16.79;26.56;101817.85;109191;1270;24468;-81
2022/04/17 08:21:45;;;;;;;4.50;2.70;;;;;;;16.97;26.44;101808.80;109187;1270;21977;-82
2022/04/17 08:24:19;;;;;;;4.20;3.10;;;;;;;17.11;26.13;101814.20;108814;1279;23781;-82
2022/04/17 08:27:00;;;;;;;5.90;5.10;;;;;;;17.27;25.90;101812.05;108398;1280;22789;-81
2022/04/17 08:29:32;;;;;;;5.60;3.50;;;;;;;17.39;25.59;101810.52;108631;1281;21997;-82
2022/04/17 08:32:03;;;;;;;6.60;4.20;;;;;;;17.41;25.45;101810.83;108620;1279;23710;-82
2022/04/17 08:34:33;;;;;;;3.00;2.20;;;;;;;17.51;25.38;101807.64;108663;1273;22589;-82
2022/04/17 08:37:08;;;;;;;3.00;2.20;;;;;;;17.65;25.15;101805.91;109010;1273;21983;-79
2022/04/17 08:39:47;;;;;;;4.60;2.40;;;;;;;17.88;24.77;101801.80;108569;1276;22567;-81
2022/04/17 08:42:34;;;;;;;;;;;;;;;;;;;;;
2022/04/17 08:45:16;;;;;;;4.90;3.10;;;;;;;18.05;23.64;101790.02;109959;1260;23677;-81
2022/04/17 08:48:09;;;;;;;;;;;;;;;;;;;;;
2022/04/17 08:50:54;;;;;;;3.20;2.50;;;;;;;18.08;23.73;101781.80;110055;1260;21987;-79
2022/04/17 08:53:31;;;;;;;4.40;2.90;;;;;;;18.18;24.18;101781.12;109780;1260;23851;-80
2022/04/17 08:56:13;;;;;;;5.00;3.20;;;;;;;18.43;24.14;101780.13;109841;1261;21932;-81
2022/04/17 08:58:59;;;;;;;3.80;2.50;;;;;;;18.57;23.58;101781.60;109811;1263;21994;-80
2022/04/17 09:01:40;;;;;;;3.80;2.60;;;;;;;18.67;23.52;101778.19;109568;1261;22019;-80
2022/04/17 09:04:10;;;;;;;4.10;2.90;;;;;;;18.68;23.24;101773.74;109345;1269;21988;-78
2022/04/17 09:06:40;;;;;;;3.60;2.50;;;;;;;18.55;23.45;101769.21;109261;1267;23690;-80
2022/04/17 09:09:19;;;;;;;4.70;2.90;;;;;;;18.66;23.93;101768.34;109116;1270;22024;-80
2022/04/17 09:11:59;;;;;;;3.70;2.30;;;;;;;18.89;23.71;101772.15;109073;1270;23005;-79
2022/04/17 09:14:30;;;;;;;3.60;2.20;;;;;;;19.06;23.58;101765.84;109066;1269;22752;-79
2022/04/17 09:17:01;;;;;;;6.80;3.20;;;;;;;19.21;23.27;101768.05;109433;1268;21947;-81
2022/04/17 09:19:33;;;;;;;3.70;2.50;;;;;;;19.39;23.05;101766.17;109295;1270;21993;-82
2022/04/17 09:22:06;;;;;;;5.40;2.20;;;;;;;19.37;21.89;101758.52;109401;1260;21988;-82
2022/04/17 09:24:50;;;;;;;7.80;6.60;;;;;;;19.24;21.64;101753.94;109926;1260;22835;-82
2022/04/17 09:27:29;;;;;;;4.40;2.90;;;;;;;19.33;21.96;101752.14;110172;1261;21959;-83
2022/04/17 09:30:24;;;;;;;3.60;2.40;;;;;;;19.53;21.73;101750.84;109965;1260;23068;-82
2022/04/17 09:33:09;;;;;;;3.70;2.20;;;;;;;19.65;21.40;101744.04;110133;1260;22071;-84
2022/04/17 09:35:58;;;;;;;2.80;1.80;;;;;;;19.67;21.22;101739.88;109972;1261;21973;-83
2022/04/17 09:38:35;;;;;;;3.90;2.00;;;;;;;19.66;20.82;101736.34;109877;1262;21972;-83
2022/04/17 09:41:10;;;;;;;3.30;1.90;;;;;;;19.73;20.88;101728.80;110156;1260;22162;-83
2022/04/17 09:43:49;;;;;;;3.80;3.10;;;;;;;19.76;20.44;101720.61;110104;1260;21976;-83
2022/04/17 09:46:20;;;;;;;3.80;3.20;;;;;;;19.81;20.60;101716.32;109868;1260;22042;-82
2022/04/17 09:48:54;;;;;;;6.20;3.00;;;;;;;19.89;20.29;101712.92;109725;1263;21982;-77
2022/04/17 09:51:31;;;;;;;3.80;2.30;;;;;;;19.97;19.96;101712.73;109898;1263;23689;-79
2022/04/17 09:54:06;;;;;;;4.00;2.70;;;;;;;19.99;19.80;101711.41;109771;1260;23061;-77
2022/04/17 09:56:40;;;;;;;3.00;2.40;;;;;;;19.91;19.30;101711.55;109027;1270;23725;-78
2022/04/17 09:59:23;;;;;;;6.60;2.80;;;;;;;19.72;19.22;101704.66;108892;1267;21985;-78
2022/04/17 10:01:55;;;;;;;4.20;2.50;;;;;;;19.53;19.43;101703.55;108864;1267;21988;-76
2022/04/17 10:04:27;;;;;;;5.30;2.60;;;;;;;19.44;19.69;101698.06;108782;1270;23021;-78
2022/04/17 10:06:59;;;;;;;4.90;4.10;;;;;;;19.52;19.76;101694.41;108691;1271;23690;-77
2022/04/17 10:09:32;;;;;;;3.60;2.90;;;;;;;19.40;19.29;101693.88;108628;1276;22004;-78
2022/04/17 10:12:05;;;;;;;4.90;2.60;;;;;;;19.22;19.35;101688.51;108435;1276;22238;-78
2022/04/17 10:14:36;;;;;;;5.90;3.00;;;;;;;19.14;19.82;101689.10;108111;1279;23620;-78
2022/04/17 10:17:20;;;;;;;3.70;2.80;;;;;;;18.92;19.52;101682.95;108322;1277;21987;-78
2022/04/17 10:19:51;;;;;;;4.70;2.80;;;;;;;18.68;19.58;101679.83;108130;1283;22274;-77
2022/04/17 10:22:29;;;;;;;4.30;2.90;;;;;;;18.68;19.86;101671.34;108330;1279;23091;-78
2022/04/17 10:25:05;;;;;;;3.30;2.50;;;;;;;18.72;19.83;101663.29;108425;1276;23373;-78
2022/04/17 10:27:57;;;;;;;3.40;2.40;;;;;;;18.76;19.73;101665.93;108376;1273;21999;-79
2022/04/17 10:30:59;;;;;;;4.50;3.00;;;;;;;18.61;19.32;101659.86;108778;1275;21970;-88
2022/04/17 10:34:06;;;;;;;3.80;2.50;;;;;;;18.43;19.63;101660.27;109259;1270;23782;-82
2022/04/17 10:37:21;;;;;;;4.00;2.80;;;;;;;18.46;19.92;101656.42;109242;1272;21999;-82
2022/04/17 10:39:58;;;;;;;2.50;2.20;;;;;;;18.45;19.72;101649.30;109621;1263;22333;-81
2022/04/17 10:42:59;;;;;;;4.50;2.30;;;;;;;18.29;19.52;101645.93;109491;1264;23039;-83
2022/04/17 10:45:31;;;;;;;3.20;2.40;;;;;;;18.05;19.42;101644.92;109308;1270;21985;-83
2022/04/17 10:48:12;;;;;;;2.60;1.90;;;;;;;17.52;19.07;101649.23;109206;1270;21997;-81
2022/04/17 10:50:52;;;;;;;3.70;2.30;;;;;;;17.10;19.39;101644.92;109228;1268;21987;-81
2022/04/17 10:53:29;;;;;;;3.80;2.60;;;;;;;16.79;19.50;101639.73;109438;1267;21996;-81
2022/04/17 11:00:36;;;;;;;5.80;3.20;;;;;;;15.85;20.64;101643.85;110915;1258;21971;-84
2022/04/17 11:03:26;;;;;;;5.20;3.10;;;;;;;15.31;20.99;101641.59;110119;1260;23611;-82
2022/04/17 11:08:57;;;;;;;;;;;;;;;;;;;;;
2022/04/17 11:12:27;;;;;;;5.40;2.10;;;;;;;14.25;21.90;101630.34;110062;1267;21986;-83
2022/04/17 11:15:29;;;;;;;2.90;2.00;;;;;;;13.94;22.20;101627.20;110223;1264;23624;-86
2022/04/17 11:18:02;;;;;;;3.00;2.20;;;;;;;13.64;22.12;101622.30;109287;1270;23702;-81
2022/04/17 11:20:57;;;;;;;3.30;2.30;;;;;;;13.34;22.07;101618.60;109180;1270;22474;-82
2022/04/17 11:24:41;;;;;;;3.00;1.90;;;;;;;13.15;22.14;101621.61;109193;1270;24408;-83
2022/04/17 11:28:02;;;;;;;2.70;1.90;;;;;;;12.92;22.17;101612.44;108868;1276;23744;-82
2022/04/17 11:31:02;;;;;;;3.70;2.40;;;;;;;12.80;22.63;101604.73;108465;1279;22827;-81
2022/04/17 11:33:37;;;;;;;4.10;2.60;;;;;;;12.79;22.81;101588.74;108341;1282;23085;-82
2022/04/17 11:36:32;;;;;;;5.50;3.20;;;;;;;12.75;22.92;101588.65;108349;1283;22038;-81
2022/04/17 11:39:06;;;;;;;5.00;3.10;;;;;;;12.61;23.27;101585.39;108259;1283;22018;-81
2022/04/17 11:41:39;;;;;;;5.60;3.30;;;;;;;12.54;23.67;101574.85;108286;1282;22015;-81
2022/04/17 11:44:14;;;;;;;6.90;3.40;;;;;;;12.54;24.22;101570.61;107900;1285;22226;-82
2022/04/17 11:46:50;;;;;;;4.40;3.20;;;;;;;12.49;24.16;101569.14;108193;1288;22127;-82
2022/04/17 11:49:44;;;;;;;3.80;2.90;;;;;;;12.36;24.31;101570.36;107638;1289;22028;-80
2022/04/17 11:52:33;;;;;;;3.40;2.20;;;;;;;12.33;24.72;101571.00;107861;1288;22023;-82
2022/04/17 11:55:43;;;;;;;3.60;2.50;;;;;;;12.35;24.91;101569.39;108334;1282;22336;-85
2022/04/17 11:58:26;;;;;;;5.90;3.50;;;;;;;12.30;24.75;101564.58;108498;1283;23699;-84
2022/04/17 12:00:59;;;;;;;4.40;2.20;;;;;;;12.25;24.77;101563.98;108802;1282;22022;-81
2022/04/17 12:03:57;;;;;;;3.70;2.50;;;;;;;12.21;24.91;101556.92;108516;1279;22003;-80
2022/04/17 12:06:34;;;;;;;3.50;2.30;;;;;;;12.20;25.01;101558.33;108979;1279;22076;-83
2022/04/17 12:09:27;;;;;;;5.60;2.30;;;;;;;12.17;24.87;101553.56;108786;1270;22988;-78
2022/04/17 12:12:13;;;;;;;33.70;26.90;;;;;;;12.12;24.84;101544.94;109341;1270;22798;-82
2022/04/17 12:14:53;;;;;;;;;;;;;;;12.15;25.10;101533.92;109584;1270;21982;-83
2022/04/17 12:17:28;;;;;;;5.90;4.20;;;;;;;12.15;25.23;101527.59;109557;1267;24289;-81
2022/04/17 12:20:14;;;;;;;4.60;2.90;;;;;;;12.22;25.33;101526.47;109398;1270;22030;-83
2022/04/17 12:22:52;;;;;;;5.80;2.70;;;;;;;12.24;24.71;101516.84;109719;1263;22490;-82
2022/04/17 12:25:26;;;;;;;3.40;2.40;;;;;;;12.17;24.57;101511.25;109280;1263;23606;-80
2022/04/17 12:28:00;;;;;;;4.50;2.40;;;;;;;12.18;24.47;101513.44;109701;1263;23770;-79
2022/04/17 12:30:37;;;;;;;3.00;1.60;;;;;;;12.20;24.09;101512.59;109570;1263;23055;-79
2022/04/17 12:33:26;;;;;;;3.60;1.90;;;;;;;12.18;23.62;101505.34;109259;1264;22081;-78
2022/04/17 12:36:22;;;;;;;4.00;1.40;;;;;;;12.16;23.13;101500.05;109258;1265;23700;-79
2022/04/17 12:39:07;;;;;;;;;;;;;;;;;;;;;
2022/04/17 12:42:16;;;;;;;13.50;10.50;;;;;;;12.00;22.49;101483.60;108794;1271;22005;-78
2022/04/17 12:44:47;;;;;;;2.80;1.90;;;;;;;11.95;22.49;101477.91;108832;1273;21985;-78
2022/04/17 12:47:16;;;;;;;4.70;2.20;;;;;;;11.90;22.52;101479.65;108400;1276;21997;-77
2022/04/17 12:49:49;;;;;;;2.50;1.60;;;;;;;11.86;22.55;101479.33;108098;1282;22075;-78
2022/04/17 12:52:21;;;;;;;3.80;2.10;;;;;;;11.81;22.54;101474.48;108026;1285;22020;-78
2022/04/17 12:54:56;;;;;;;4.10;2.30;;;;;;;11.78;22.76;101467.39;107937;1283;23101;-79
2022/04/17 12:57:25;;;;;;;3.70;1.70;;;;;;;11.72;22.80;101464.55;107773;1285;22088;-78
2022/04/17 12:59:55;;;;;;;3.40;2.00;;;;;;;11.69;22.95;101458.75;107683;1285;23717;-77
2022/04/17 13:02:28;;;;;;;;;;;;;;;11.70;23.12;101454.94;107925;1285;23095;-78
2022/04/17 13:05:02;;;;;;;6.70;4.50;;;;;;;11.67;23.18;101453.48;107892;1282;23704;-76
2022/04/17 13:07:37;;;;;;;3.60;1.70;;;;;;;11.70;23.35;101451.02;108136;1279;22155;-77
2022/04/17 13:10:08;;;;;;;2.90;1.60;;;;;;;11.77;23.32;101447.64;108385;1273;24335;-78
2022/04/17 13:12:47;;;;;;;2.70;1.80;;;;;;;11.82;23.34;101446.89;108530;1267;23064;-77
2022/04/17 13:16:00;;;;;;;5.50;2.20;;;;;;;11.84;23.30;101437.50;108847;1267;22060;-78
2022/04/17 13:18:39;;;;;;;2.40;1.50;;;;;;;11.87;23.30;101436.05;109303;1262;22500;-78
2022/04/17 13:21:33;;;;;;;3.50;1.80;;;;;;;11.88;22.95;101438.89;109382;1263;23618;-79
2022/04/17 13:24:03;;;;;;;4.60;2.50;;;;;;;11.85;22.72;101437.44;109351;1264;23714;-79